Time;durP1;ratioP1;P1;durP2;ratioP2;P2;SDS_P1;SDS_P2;PMS_P1;PMS_P2;Temp;Humidity;BMP_temperature;BMP_pressure;BME280_temperature;BME280_humidity;BME280_pressure;Samples;Min_cycle;Max_cycle;Signal;HPM_P1;HPM_P2
2021/10/25 00:01:31;;;;;;;;;;;;;;;6.49;67.77;99181.09;5074419;28;19924;-76
2021/10/25 00:03:57;;;;;;;;;;;;;;;6.47;67.68;99181.22;5090352;28;19927;-76
2021/10/25 00:06:23;;;;;;;;;;;;;;;6.45;67.86;99171.66;5071295;28;19926;-76
2021/10/25 00:08:48;;;;;;;;;;;;;;;6.43;67.95;99166.44;5101133;28;20290;-75
2021/10/25 00:11:14;;;;;;;;;;;;;;;6.40;68.07;99164.00;5099133;28;20306;-76
2021/10/25 00:13:40;;;;;;;;;;;;;;;6.39;68.10;99172.88;5082337;28;19926;-76
2021/10/25 00:16:06;;;;;;;;;;;;;;;6.38;68.05;99178.31;5065784;28;20381;-76
2021/10/25 00:18:33;;;;;;;;;;;;;;;6.30;68.50;99174.34;5099756;28;19920;-75
2021/10/25 00:20:59;;;;;;;;;;;;;;;6.20;68.63;99175.03;5081856;28;20039;-74
2021/10/25 00:23:24;;;;;;;;;;;;;;;6.15;68.91;99179.81;5081671;28;20461;-75
2021/10/25 00:25:52;;;;;;;;;;;;;;;6.14;68.92;99167.50;5065442;28;19970;-75
2021/10/25 00:28:17;;;;;;;;;;;;;;;6.08;69.12;99174.88;5099101;28;19971;-76
2021/10/25 00:30:43;;;;;;;;;;;;;;;6.04;69.52;99172.53;5081805;28;20445;-75
2021/10/25 00:33:09;;;;;;;;;;;;;;;6.01;69.64;99178.88;5081570;28;20014;-75
2021/10/25 00:35:35;;;;;;;;;;;;;;;6.00;69.75;99179.81;5098173;28;20010;-76
2021/10/25 00:38:01;;;;;;;;;;;;;;;6.01;69.74;99178.88;5081365;28;20390;-75
2021/10/25 00:40:27;;;;;;;;;;;;;;;5.96;69.68;99175.66;5081424;28;19926;-76
2021/10/25 00:42:53;;;;;;;;;;;;;;;5.95;69.74;99166.03;5098542;28;19989;-76
2021/10/25 00:45:19;;;;;;;;;;;;;;;6.00;69.75;99169.22;5064770;28;20388;-76
2021/10/25 00:47:44;;;;;;;;;;;;;;;5.99;69.97;99158.72;5081623;28;19919;-75
2021/10/25 00:50:10;;;;;;;;;;;;;;;5.96;69.96;99162.41;5097966;28;19920;-76
2021/10/25 00:52:38;;;;;;;;;;;;;;;5.96;70.19;99169.50;5098328;28;19927;-76
2021/10/25 00:55:07;;;;;;;;;;;;;;;5.98;70.08;99157.88;5098211;28;19942;-75
2021/10/25 00:57:33;;;;;;;;;;;;;;;6.00;69.82;99161.25;5081060;28;19920;-75
2021/10/25 00:59:59;;;;;;;;;;;;;;;6.00;69.83;99155.94;5080872;28;19919;-77
2021/10/25 01:02:24;;;;;;;;;;;;;;;6.01;69.92;99162.94;5080746;28;19926;-76
2021/10/25 01:04:50;;;;;;;;;;;;;;;5.99;69.83;99164.03;5081200;28;19926;-75
2021/10/25 01:07:16;;;;;;;;;;;;;;;5.98;69.96;99165.81;5064368;28;20074;-76
2021/10/25 01:09:42;;;;;;;;;;;;;;;5.99;70.01;99164.88;5080997;28;19919;-76
2021/10/25 01:12:07;;;;;;;;;;;;;;;5.96;70.03;99170.38;5097631;28;20382;-75
2021/10/25 01:14:33;;;;;;;;;;;;;;;5.99;70.16;99156.06;5098126;28;20375;-74
2021/10/25 01:16:59;;;;;;;;;;;;;;;6.00;70.05;99163.06;5081054;28;19973;-76
2021/10/25 01:19:25;;;;;;;;;;;;;;;5.99;70.08;99167.53;5080389;28;19919;-75
2021/10/25 01:21:51;;;;;;;;;;;;;;;6.02;70.24;99159.38;5080553;28;20278;-76
2021/10/25 01:24:17;;;;;;;;;;;;;;;6.05;70.11;99163.59;5080773;28;19919;-75
2021/10/25 01:26:43;;;;;;;;;;;;;;;6.05;70.10;99153.84;5114171;28;19924;-76
2021/10/25 01:29:09;;;;;;;;;;;;;;;6.08;69.92;99142.19;5080219;28;20028;-75
2021/10/25 01:31:36;;;;;;;;;;;;;;;6.11;69.78;99154.41;5080199;28;19930;-76
2021/10/25 01:34:02;;;;;;;;;;;;;;;6.14;69.55;99148.91;5096778;28;19924;-76
2021/10/25 01:36:32;;;;;;;;;;;;;;;6.15;69.62;99156.75;5064049;28;19928;-76
2021/10/25 01:38:58;;;;;;;;;;;;;;;6.17;69.72;99161.97;5079826;28;19926;-76
2021/10/25 01:41:24;;;;;;;;;;;;;;;6.15;69.52;99155.91;5080408;28;19920;-76
2021/10/25 01:43:50;;;;;;;;;;;;;;;6.14;69.39;99156.88;5080277;28;20313;-77
2021/10/25 01:46:16;;;;;;;;;;;;;;;6.16;69.55;99160.25;5096951;28;19928;-75
2021/10/25 01:48:42;;;;;;;;;;;;;;;6.18;69.48;99158.38;5079934;28;19920;-76
2021/10/25 01:51:08;;;;;;;;;;;;;;;6.17;69.39;99161.97;5096932;28;20387;-76
2021/10/25 01:53:34;;;;;;;;;;;;;;;6.17;69.61;99164.63;5080059;28;20502;-77
2021/10/25 01:56:01;;;;;;;;;;;;;;;6.13;69.30;99166.66;5080033;28;19980;-76
2021/10/25 01:58:31;;;;;;;;;;;;;;;6.14;69.29;99162.19;5080551;28;19926;-75
2021/10/25 02:01:00;;;;;;;;;;;;;;;6.19;69.40;99165.38;5063984;28;20018;-77
2021/10/25 02:03:27;;;;;;;;;;;;;;;6.20;69.35;99167.91;5079629;28;20022;-75
2021/10/25 02:05:57;;;;;;;;;;;;;;;6.19;69.30;99168.88;5081474;28;20374;-74
2021/10/25 02:08:24;;;;;;;;;;;;;;;6.19;69.16;99170.69;5079767;28;19920;-76
2021/10/25 02:10:58;;;;;;;;;;;;;;;6.22;69.21;99173.16;5097276;28;19959;-76
2021/10/25 02:13:24;;;;;;;;;;;;;;;6.22;69.14;99168.69;5063176;28;19919;-76
2021/10/25 02:15:50;;;;;;;;;;;;;;;6.21;69.18;99166.16;5096759;28;19920;-76
2021/10/25 02:18:20;;;;;;;;;;;;;;;6.19;68.99;99168.03;5096374;28;19919;-76
2021/10/25 02:20:46;;;;;;;;;;;;;;;6.17;69.29;99172.56;5079486;28;19927;-76
2021/10/25 02:23:18;;;;;;;;;;;;;;;6.17;70.18;99156.66;5080817;28;19946;-76
2021/10/25 02:25:45;;;;;;;;;;;;;;;6.24;70.20;99157.97;5063016;28;19926;-77
2021/10/25 02:28:16;;;;;;;;;;;;;;;6.30;69.97;99162.88;5097020;28;20006;-77
2021/10/25 02:30:44;;;;;;;;;;;;;;;6.29;69.36;99161.19;5079035;28;19926;-76
2021/10/25 02:33:09;;;;;;;;;;;;;;;6.27;69.04;99163.91;5112782;28;19919;-76
2021/10/25 02:35:36;;;;;;;;;;;;;;;6.25;69.07;99160.53;5062106;28;19973;-75
2021/10/25 02:38:02;;;;;;;;;;;;;;;6.24;69.00;99168.56;5079302;28;19923;-76
2021/10/25 02:40:30;;;;;;;;;;;;;;;6.20;69.07;99169.72;5112446;28;19920;-76
2021/10/25 02:42:57;;;;;;;;;;;;;;;6.15;69.20;99170.03;5078704;28;19919;-77
2021/10/25 02:45:23;;;;;;;;;;;;;;;6.08;69.20;99168.72;5112761;28;19920;-76
2021/10/25 02:47:50;;;;;;;;;;;;;;;6.04;69.27;99165.41;5095856;28;20458;-77
2021/10/25 02:50:16;;;;;;;;;;;;;;;6.06;69.08;99160.88;5078823;28;20014;-77
2021/10/25 02:52:42;;;;;;;;;;;;;;;6.10;69.00;99161.53;5095916;28;19934;-76
2021/10/25 02:55:08;;;;;;;;;;;;;;;6.11;69.01;99171.19;5079044;28;19924;-76
2021/10/25 02:57:34;;;;;;;;;;;;;;;6.12;68.93;99164.06;5076439;28;19928;-75
2021/10/25 03:00:00;;;;;;;;;;;;;;;6.14;68.96;99171.00;5055429;28;19920;-75
2021/10/25 03:02:26;;;;;;;;;;;;;;;6.17;68.91;99178.75;5055098;28;20011;-75
2021/10/25 03:04:52;;;;;;;;;;;;;;;6.23;68.80;99181.00;5055201;28;19927;-75
2021/10/25 03:07:22;;;;;;;;;;;;;;;6.27;68.58;99179.00;5056079;28;19920;-77
2021/10/25 03:09:49;;;;;;;;;;;;;;;6.21;68.39;99179.41;5055712;28;20105;-76
2021/10/25 03:12:15;;;;;;;;;;;;;;;6.24;68.55;99179.19;5072142;28;20063;-77
2021/10/25 03:14:42;;;;;;;;;;;;;;;6.24;68.57;99180.06;5038921;28;19927;-77
2021/10/25 03:17:07;;;;;;;;;;;;;;;6.25;68.61;99175.63;5038552;28;20445;-76
2021/10/25 03:19:45;;;;;;;;;;;;;;;6.25;68.42;99170.31;5056769;28;20311;-77
2021/10/25 03:22:13;;;;;;;;;;;;;;;6.34;68.44;99182.97;5071446;28;20290;-75
2021/10/25 03:24:39;;;;;;;;;;;;;;;6.31;68.32;99181.34;5058659;28;19978;-77
2021/10/25 03:27:04;;;;;;;;;;;;;;;6.52;69.41;99178.25;5042743;28;19940;-76
2021/10/25 03:29:31;;;;;;;;;;;;;;;6.70;68.86;99170.88;5075980;28;20299;-76
2021/10/25 03:31:58;;;;;;;;;;;;;;;6.75;67.96;99168.75;5042899;28;20332;-76
2021/10/25 03:34:25;;;;;;;;;;;;;;;6.76;67.41;99170.44;5075677;28;20403;-75
2021/10/25 03:36:51;;;;;;;;;;;;;;;6.71;67.19;99177.88;5042398;28;19921;-75
2021/10/25 03:39:24;;;;;;;;;;;;;;;6.66;67.23;99174.69;5042187;28;19920;-76
2021/10/25 03:41:51;;;;;;;;;;;;;;;6.70;67.31;99173.53;5050504;28;20359;-75
2021/10/25 03:44:22;;;;;;;;;;;;;;;6.74;67.35;99183.00;5073715;28;19964;-77
2021/10/25 03:46:55;;;;;;;;;;;;;;;6.73;67.03;99182.16;5066385;28;19942;-76
2021/10/25 03:52:41;;;;;;;;;;;;;;;6.83;66.80;99182.38;5115733;28;19919;-74
2021/10/25 04:03:30;;;;;;;;;;;;;;;6.84;66.40;99176.09;5115794;28;19920;-74
2021/10/25 04:28:40;;;;;;;;;;;;;;;7.00;65.54;99187.41;5098288;28;19919;-76
2021/10/25 04:31:07;;;;;;;;;;;;;;;6.83;65.70;99190.34;5065165;28;19920;-78
2021/10/25 04:33:41;;;;;;;;;;;;;;;6.85;66.06;99184.94;5098833;28;19920;-74
2021/10/25 04:36:33;;;;;;;;;;;;;;;6.92;65.66;99183.53;5066398;28;19919;-76
2021/10/25 04:39:12;;;;;;;;;;;;;;;7.00;65.66;99181.25;5093637;28;20448;-75
2021/10/25 04:41:39;;;;;;;;;;;;;;;7.00;65.59;99183.91;5080184;28;19924;-75
2021/10/25 04:44:04;;;;;;;;;;;;;;;7.05;65.31;99187.94;5096116;28;19919;-76
2021/10/25 04:46:30;;;;;;;;;;;;;;;6.96;65.26;99188.56;5095463;28;19927;-77
2021/10/25 04:48:56;;;;;;;;;;;;;;;6.90;65.63;99186.31;5095544;28;19923;-75
2021/10/25 04:51:33;;;;;;;;;;;;;;;6.80;65.67;99187.88;5096514;28;19920;-74
2021/10/25 04:54:10;;;;;;;;;;;;;;;6.85;65.70;99192.91;5080292;28;19919;-76
2021/10/25 04:56:48;;;;;;;;;;;;;;;6.96;65.63;99183.25;5080139;28;20402;-75
2021/10/25 04:59:16;;;;;;;;;;;;;;;7.08;65.67;99180.72;5079979;28;19977;-74
2021/10/25 05:01:42;;;;;;;;;;;;;;;7.18;65.07;99182.63;5081165;28;19919;-74
2021/10/25 05:04:08;;;;;;;;;;;;;;;7.25;64.79;99185.72;5080861;28;19930;-75
2021/10/25 05:06:34;;;;;;;;;;;;;;;7.33;64.50;99186.03;5097571;28;19923;-74
2021/10/25 05:09:00;;;;;;;;;;;;;;;7.43;64.15;99179.13;5079987;28;19920;-76
2021/10/25 05:11:26;;;;;;;;;;;;;;;7.53;63.91;99180.19;5063597;28;19919;-74
2021/10/25 05:13:51;;;;;;;;;;;;;;;7.57;63.69;99174.66;5080012;28;20302;-77
2021/10/25 05:16:17;;;;;;;;;;;;;;;7.62;63.71;99175.19;5080411;28;19920;-75
2021/10/25 05:18:55;;;;;;;;;;;;;;;7.64;63.78;99176.78;5114592;28;20003;-75
2021/10/25 05:21:21;;;;;;;;;;;;;;;7.73;63.81;99177.94;5097749;28;20124;-76
2021/10/25 05:23:47;;;;;;;;;;;;;;;7.79;63.71;99177.50;5113947;28;19919;-76
2021/10/25 05:26:13;;;;;;;;;;;;;;;7.90;63.66;99179.38;5064282;28;19977;-76
2021/10/25 05:28:40;;;;;;;;;;;;;;;8.01;63.43;99167.03;5080902;28;20036;-76
2021/10/25 05:31:06;;;;;;;;;;;;;;;8.12;63.31;99155.56;5080953;28;19924;-76
2021/10/25 05:33:40;;;;;;;;;;;;;;;8.24;62.83;99168.00;5098822;28;19919;-75
2021/10/25 05:36:07;;;;;;;;;;;;;;;8.30;62.36;99161.38;5097252;28;19963;-75
2021/10/25 05:38:33;;;;;;;;;;;;;;;8.38;62.58;99158.16;5080147;28;19941;-76
2021/10/25 05:40:59;;;;;;;;;;;;;;;8.48;62.04;99154.72;5080414;28;19943;-75
2021/10/25 05:43:25;;;;;;;;;;;;;;;8.54;61.99;99161.41;5063346;28;20382;-74
2021/10/25 05:45:51;;;;;;;;;;;;;;;8.63;62.29;99157.22;5078939;28;19930;-75
2021/10/25 05:48:17;;;;;;;;;;;;;;;8.66;61.81;99165.81;5079748;28;20039;-74
2021/10/25 05:50:43;;;;;;;;;;;;;;;8.75;61.59;99161.59;5079512;28;20415;-76
2021/10/25 05:53:09;;;;;;;;;;;;;;;8.80;61.59;99163.91;5063864;28;20006;-76
2021/10/25 05:55:37;;;;;;;;;;;;;;;8.83;60.93;99163.69;5079838;28;20014;-76
2021/10/25 05:58:04;;;;;;;;;;;;;;;8.82;60.82;99162.00;5079992;28;19927;-76
2021/10/25 06:00:35;;;;;;;;;;;;;;;8.77;60.58;99154.34;5079821;28;19920;-75
2021/10/25 06:03:06;;;;;;;;;;;;;;;8.72;60.86;99157.34;5113661;28;19919;-76
2021/10/25 06:05:32;;;;;;;;;;;;;;;8.69;60.89;99162.09;5063743;28;20457;-76
2021/10/25 06:08:00;;;;;;;;;;;;;;;8.61;61.07;99153.78;5064179;28;19941;-75
2021/10/25 06:10:28;;;;;;;;;;;;;;;8.65;61.25;99160.59;5097691;28;19919;-76
2021/10/25 06:12:58;;;;;;;;;;;;;;;8.71;61.19;99160.13;5096994;28;20316;-75
2021/10/25 06:15:40;;;;;;;;;;;;;;;8.78;60.64;99157.88;5098081;28;19919;-76
2021/10/25 06:18:09;;;;;;;;;;;;;;;8.82;60.41;99156.66;5081134;28;19924;-75
2021/10/25 06:20:38;;;;;;;;;;;;;;;8.84;60.52;99160.06;5096895;28;19920;-75
2021/10/25 06:23:09;;;;;;;;;;;;;;;8.86;60.40;99158.13;5063149;28;19920;-76
2021/10/25 06:25:37;;;;;;;;;;;;;;;8.89;60.40;99164.09;5079555;28;19953;-74
2021/10/25 06:28:14;;;;;;;;;;;;;;;8.95;60.35;99162.75;5097513;28;19930;-74
2021/10/25 06:31:01;;;;;;;;;;;;;;;9.00;59.89;99166.78;5081146;28;19919;-76
2021/10/25 06:34:03;;;;;;;;;;;;;;;9.12;59.84;99158.81;5113044;28;19973;-75
2021/10/25 06:36:34;;;;;;;;;;;;;;;9.05;59.49;99155.75;5096722;28;19920;-76
2021/10/25 06:39:23;;;;;;;;;;;;;;;9.09;59.91;99159.03;5082390;28;19927;-76
2021/10/25 06:41:52;;;;;;;;;;;;;;;9.27;59.23;99162.13;5080022;28;19919;-75
2021/10/25 06:44:24;;;;;;;;;;;;;;;9.28;58.86;99161.97;5080025;28;19926;-76
2021/10/25 06:46:56;;;;;;;;;;;;;;;9.32;58.72;99165.25;5096828;28;19964;-75
2021/10/25 06:49:22;;;;;;;;;;;;;;;9.33;58.35;99161.66;5078684;28;19919;-75
2021/10/25 06:51:49;;;;;;;;;;;;;;;9.28;58.54;99164.66;5078781;28;20055;-75
2021/10/25 06:54:16;;;;;;;;;;;;;;;9.38;58.50;99165.66;5079305;28;19920;-76
2021/10/25 06:56:42;;;;;;;;;;;;;;;9.54;58.12;99161.78;5079090;28;19926;-75
2021/10/25 06:59:07;;;;;;;;;;;;;;;9.65;57.41;99156.44;5078480;28;19926;-75
2021/10/25 07:01:38;;;;;;;;;;;;;;;9.67;57.42;99162.53;5079343;28;20003;-77
2021/10/25 07:04:04;;;;;;;;;;;;;;;9.67;57.17;99160.69;5095821;28;19927;-77
2021/10/25 07:06:34;;;;;;;;;;;;;;;9.71;57.69;99155.97;5079461;28;19958;-75
2021/10/25 07:09:03;;;;;;;;;;;;;;;9.66;57.71;99147.44;5095724;28;19962;-76
2021/10/25 07:11:30;;;;;;;;;;;;;;;9.70;57.49;99156.91;5078671;28;19926;-77
2021/10/25 07:13:57;;;;;;;;;;;;;;;9.48;57.87;99160.44;5078707;28;19919;-75
2021/10/25 07:16:39;;;;;;;;;;;;;;;9.34;57.93;99168.69;5079323;28;19919;-75
2021/10/25 07:19:26;;;;;;;;;;;;;;;9.14;58.72;99162.19;5082592;28;19925;-76
2021/10/25 08:11:42;;;;;;;;;;;;;;;10.45;56.68;99140.16;5084490;28;19923;-75
2021/10/25 08:14:09;;;;;;;;;;;;;;;10.45;56.52;99125.00;5083632;28;19959;-77
2021/10/25 08:19:28;;;;;;;;;;;;;;;10.44;56.88;99122.44;5083104;28;19923;-76
2021/10/25 08:21:57;;;;;;;;;;;;;;;10.49;57.24;99114.03;5100368;28;20370;-74
2021/10/25 08:24:24;;;;;;;;;;;;;;;10.63;57.24;99116.41;5081932;28;19926;-74
2021/10/25 08:27:06;;;;;;;;;;;;;;;10.57;57.28;99116.91;5083696;28;19928;-76
2021/10/25 08:29:32;;;;;;;;;;;;;;;10.34;57.30;99117.03;5115241;28;20422;-76
2021/10/25 08:40:18;;;;;;;;;;;;;;;10.86;56.27;99101.94;5084160;28;19924;-76
2021/10/25 08:42:44;;;;;;;;;;;;;;;10.93;56.57;99097.78;5098093;28;19919;-77
2021/10/25 08:45:16;;;;;;;;;;;;;;;11.06;56.37;99096.75;5082025;28;20271;-76
2021/10/25 08:47:48;;;;;;;;;;;;;;;11.16;55.60;99097.63;5116106;28;19919;-75
2021/10/25 08:50:18;;;;;;;;;;;;;;;11.19;55.73;99098.22;5082315;28;19926;-75
2021/10/25 08:52:45;;;;;;;;;;;;;;;11.21;55.55;99094.56;5098644;28;20334;-77
2021/10/25 08:55:12;;;;;;;;;;;;;;;11.09;55.22;99096.47;5064899;28;19935;-74
2021/10/25 08:57:38;;;;;;;;;;;;;;;11.07;55.20;99104.63;5097693;28;20382;-75
2021/10/25 09:00:25;;;;;;;;;;;;;;;10.94;54.99;99102.16;5080704;28;20010;-76
2021/10/25 09:03:26;;;;;;;;;;;;;;;10.88;54.95;99100.00;5093054;28;19958;-76
2021/10/25 09:06:01;;;;;;;;;;;;;;;10.74;54.92;99103.00;5114680;28;20348;-76
2021/10/25 09:08:30;;;;;;;;;;;;;;;10.78;55.50;99093.72;5081573;28;19920;-76
2021/10/25 09:10:56;;;;;;;;;;;;;;;10.94;55.39;99090.59;5081012;28;19972;-76
2021/10/25 09:13:26;;;;;;;;;;;;;;;11.01;55.29;99088.25;5097799;28;19920;-76
2021/10/25 09:15:58;;;;;;;;;;;;;;;11.12;55.24;99085.50;5097169;28;19926;-77
2021/10/25 09:18:45;;;;;;;;;;;;;;;11.23;54.78;99081.91;5113720;28;20018;-76
2021/10/25 09:21:15;;;;;;;;;;;;;;;11.33;54.41;99078.28;5064573;28;19942;-76
2021/10/25 09:23:42;;;;;;;;;;;;;;;11.43;54.41;99089.03;5114361;28;20017;-76
2021/10/25 09:26:30;;;;;;;;;;;;;;;11.53;54.46;99089.06;5079833;28;19924;-76
2021/10/25 09:29:00;;;;;;;;;;;;;;;11.64;53.57;99080.94;5081503;28;19924;-75
2021/10/25 09:31:36;;;;;;;;;;;;;;;11.33;54.08;99080.97;5063364;28;19920;-76
2021/10/25 09:34:05;;;;;;;;;;;;;;;11.28;54.77;99083.19;5098140;28;19920;-75
2021/10/25 09:37:04;;;;;;;;;;;;;;;11.34;54.75;99090.69;5057094;28;19920;-76
2021/10/25 09:39:46;;;;;;;;;;;;;;;11.45;54.42;99096.94;5080406;28;19919;-75
2021/10/25 09:50:58;;;;;;;;;;;;;;;11.49;54.48;99076.94;5082083;28;20020;-76
2021/10/25 09:53:37;;;;;;;;;;;;;;;11.58;54.60;99086.81;5096660;28;19919;-76
2021/10/25 09:56:04;;;;;;;;;;;;;;;11.70;54.08;99080.41;5079838;28;20025;-76
2021/10/25 09:58:40;;;;;;;;;;;;;;;11.75;54.07;99072.81;5097149;28;19927;-76
2021/10/25 10:01:08;;;;;;;;;;;;;;;11.61;54.09;99070.50;5097376;28;19919;-76
2021/10/25 10:03:36;;;;;;;;;;;;;;;11.75;54.33;99078.16;5079583;28;20286;-76
2021/10/25 10:06:06;;;;;;;;;;;;;;;11.86;53.93;99066.53;5064017;28;19985;-76
2021/10/25 10:08:35;;;;;;;;;;;;;;;11.88;53.27;99068.09;5079495;28;20025;-76
2021/10/25 10:11:12;;;;;;;;;;;;;;;11.75;53.56;99062.09;5065354;28;19920;-77
2021/10/25 10:13:41;;;;;;;;;;;;;;;11.61;53.42;99052.59;5062689;28;20026;-76
2021/10/25 10:16:15;;;;;;;;;;;;;;;11.45;53.69;99064.81;5097617;28;20297;-77
2021/10/25 10:18:51;;;;;;;;;;;;;;;11.61;54.37;99049.09;5079384;28;20411;-76
2021/10/25 10:21:30;;;;;;;;;;;;;;;12.20;53.12;99056.28;5065738;28;20332;-76
2021/10/25 10:24:05;;;;;;;;;;;;;;;12.62;51.80;99050.63;5097538;28;19920;-75
2021/10/25 10:26:32;;;;;;;;;;;;;;;12.58;51.31;99054.59;5096510;28;19968;-75
2021/10/25 10:29:10;;;;;;;;;;;;;;;12.27;51.53;99052.06;5095767;28;19964;-77
2021/10/25 10:31:41;;;;;;;;;;;;;;;12.05;52.47;99063.03;5096276;28;20402;-77
2021/10/25 10:34:40;;;;;;;;;;;;;;;11.97;53.08;99055.69;5086012;28;19931;-75
2021/10/25 10:37:19;;;;;;;;;;;;;;;12.02;52.74;99058.78;5096613;28;20010;-74
2021/10/25 10:39:45;;;;;;;;;;;;;;;11.94;52.49;99055.13;5078862;28;19927;-75
2021/10/25 10:42:50;;;;;;;;;;;;;;;11.77;52.30;99057.47;5054321;28;19920;-76
2021/10/25 10:45:18;;;;;;;;;;;;;;;11.77;52.33;99054.78;5021866;28;19973;-75
2021/10/25 10:47:57;;;;;;;;;;;;;;;11.61;52.31;99060.63;5063754;28;19962;-76
2021/10/25 10:50:29;;;;;;;;;;;;;;;11.64;52.78;99059.53;5095314;28;19920;-76
2021/10/25 10:52:59;;;;;;;;;;;;;;;11.76;52.55;99063.78;5079302;28;20370;-76
2021/10/25 10:55:33;;;;;;;;;;;;;;;12.31;51.69;99064.19;5078738;28;19923;-76
2021/10/25 11:00:34;;;;;;;;;;;;;;;13.41;49.55;99047.63;5096159;28;19958;-76
2021/10/25 11:03:02;;;;;;;;;;;;;;;13.68;48.94;99054.81;5112048;28;19984;-76
2021/10/25 11:05:37;;;;;;;;;;;;;;;14.06;48.49;99052.91;5096310;28;19935;-76
2021/10/25 11:08:11;;;;;;;;;;;;;;;14.50;47.72;99055.72;5079036;28;19919;-76
2021/10/25 11:10:38;;;;;;;;;;;;;;;14.71;46.80;99055.41;5078702;28;19920;-76
2021/10/25 11:13:12;;;;;;;;;;;;;;;14.94;45.70;99048.50;5095639;28;19919;-75
2021/10/25 11:15:48;;;;;;;;;;;;;;;14.80;45.74;99047.22;5095755;28;20440;-76
2021/10/25 11:18:14;;;;;;;;;;;;;;;15.10;45.87;99053.13;5079858;28;19926;-76
2021/10/25 11:20:39;;;;;;;;;;;;;;;15.36;45.15;99058.50;5095055;28;19919;-75
2021/10/25 11:23:06;;;;;;;;;;;;;;;14.77;45.00;99044.84;5094910;28;19924;-76
2021/10/25 11:25:41;;;;;;;;;;;;;;;14.02;46.59;99046.13;5078246;28;20239;-76
2021/10/25 11:28:33;;;;;;;;;;;;;;;13.51;47.59;99047.59;5078190;28;19935;-76
2021/10/25 11:31:01;;;;;;;;;;;;;;;13.01;48.38;99055.91;5090926;28;19919;-76
2021/10/25 11:33:28;;;;;;;;;;;;;;;12.61;49.17;99057.81;5078207;28;19919;-76
2021/10/25 11:35:54;;;;;;;;;;;;;;;12.30;49.83;99062.50;5078092;28;19942;-77
2021/10/25 11:38:19;;;;;;;;;;;;;;;12.03;50.78;99065.00;5077978;28;20371;-76
2021/10/25 11:40:45;;;;;;;;;;;;;;;11.71;51.33;99060.69;5112327;28;19920;-76
2021/10/25 11:43:11;;;;;;;;;;;;;;;11.53;51.98;99062.31;5094897;28;20374;-76
2021/10/25 11:45:37;;;;;;;;;;;;;;;11.41;52.30;99066.91;5098055;28;19920;-75
2021/10/25 11:48:03;;;;;;;;;;;;;;;11.23;52.55;99069.38;5116280;28;19919;-76
2021/10/25 11:50:30;;;;;;;;;;;;;;;11.15;52.97;99074.53;5065322;28;19923;-77
2021/10/25 11:52:58;;;;;;;;;;;;;;;11.05;53.51;99068.28;5081858;28;19920;-75
2021/10/25 11:55:25;;;;;;;;;;;;;;;10.97;53.79;99065.44;5116034;28;19968;-74
2021/10/25 11:57:52;;;;;;;;;;;;;;;10.94;54.24;99062.06;5081828;28;19919;-76
2021/10/25 12:00:22;;;;;;;;;;;;;;;10.97;54.22;99065.44;5081610;28;20017;-75
2021/10/25 12:02:53;;;;;;;;;;;;;;;10.92;54.07;99069.34;5082866;28;19927;-76
2021/10/25 12:05:24;;;;;;;;;;;;;;;10.85;54.50;99073.53;5081750;28;19972;-76
2021/10/25 12:07:53;;;;;;;;;;;;;;;10.70;55.10;99074.84;5115372;28;20274;-75
2021/10/25 12:10:23;;;;;;;;;;;;;;;10.56;55.67;99077.81;5081439;28;20358;-76
2021/10/25 12:12:53;;;;;;;;;;;;;;;10.43;56.19;99076.19;5098490;28;19920;-76
2021/10/25 12:15:19;;;;;;;;;;;;;;;10.39;56.48;99076.56;5064609;28;19924;-76
2021/10/25 12:17:45;;;;;;;;;;;;;;;10.30;56.68;99085.34;5081495;28;19926;-77
2021/10/25 12:20:13;;;;;;;;;;;;;;;10.18;57.75;99081.81;5098804;28;19927;-75
2021/10/25 12:22:42;;;;;;;;;;;;;;;10.09;57.94;99085.28;5098027;28;19920;-77
2021/10/25 12:25:08;;;;;;;;;;;;;;;9.92;58.29;99079.47;5081763;28;19926;-76
2021/10/25 12:27:38;;;;;;;;;;;;;;;9.86;58.99;99084.47;5081158;28;19924;-76
2021/10/25 12:30:09;;;;;;;;;;;;;;;9.81;59.21;99076.81;5081958;28;20338;-76
2021/10/25 12:32:35;;;;;;;;;;;;;;;9.70;59.43;99075.03;5098373;28;19927;-76
2021/10/25 12:35:02;;;;;;;;;;;;;;;9.65;59.77;99081.72;5098076;28;20419;-75
2021/10/25 12:37:28;;;;;;;;;;;;;;;9.60;60.26;99083.91;5097872;28;19969;-76
2021/10/25 12:39:54;;;;;;;;;;;;;;;9.51;60.52;99074.81;5081028;28;20302;-76
2021/10/25 12:42:21;;;;;;;;;;;;;;;9.51;60.51;99084.63;5081103;28;20350;-76
2021/10/25 12:44:51;;;;;;;;;;;;;;;9.49;61.09;99087.44;5081498;28;19954;-76
2021/10/25 12:47:21;;;;;;;;;;;;;;;9.53;60.65;99082.69;5098867;28;19920;-75
2021/10/25 12:49:48;;;;;;;;;;;;;;;9.52;61.11;99097.03;5081534;28;19966;-74
2021/10/25 12:52:16;;;;;;;;;;;;;;;9.36;61.57;99092.88;5115579;28;19968;-75
2021/10/25 12:54:42;;;;;;;;;;;;;;;9.34;61.74;99105.50;5082272;28;19942;-75
2021/10/25 12:57:21;;;;;;;;;;;;;;;9.26;62.04;99113.25;5084042;28;19923;-75
2021/10/25 12:59:59;;;;;;;;;;;;;;;9.13;63.17;99133.84;5100981;28;19919;-75
2021/10/25 13:02:26;;;;;;;;;;;;;;;9.10;62.92;99120.72;5118477;28;19920;-76
2021/10/25 13:04:52;;;;;;;;;;;;;;;9.14;63.24;99131.06;5120515;28;19919;-75
2021/10/25 13:07:20;;;;;;;;;;;;;;;9.19;63.71;99112.03;5072611;28;19983;-76
2021/10/25 13:09:52;;;;;;;;;;;;;;;9.04;62.66;99092.75;5091976;28;19927;-76
2021/10/25 13:12:18;;;;;;;;;;;;;;;8.92;62.60;99094.56;5078518;28;19973;-75
2021/10/25 13:14:44;;;;;;;;;;;;;;;8.80;61.81;99089.28;5093264;28;19919;-76
2021/10/25 13:17:11;;;;;;;;;;;;;;;8.68;61.57;99086.59;5074062;28;19927;-76
2021/10/25 13:19:37;;;;;;;;;;;;;;;8.55;62.02;99101.00;5105527;28;19969;-76
2021/10/25 13:22:03;;;;;;;;;;;;;;;8.47;61.70;99102.41;5099029;28;20286;-76
2021/10/25 13:24:29;;;;;;;;;;;;;;;8.38;62.92;99112.91;5097886;28;19920;-75
2021/10/25 13:26:55;;;;;;;;;;;;;;;8.33;63.03;99117.69;5080475;28;19923;-76
2021/10/25 13:29:20;;;;;;;;;;;;;;;8.28;63.74;99118.03;5080251;28;20028;-76
2021/10/25 13:31:46;;;;;;;;;;;;;;;8.28;63.56;99120.72;5080533;28;19919;-76
2021/10/25 13:34:12;;;;;;;;;;;;;;;8.32;63.72;99116.00;5097047;28;20294;-76
2021/10/25 13:36:38;;;;;;;;;;;;;;;8.35;63.94;99116.63;5080232;28;19919;-76
2021/10/25 13:39:03;;;;;;;;;;;;;;;8.40;64.58;99118.97;5097124;28;19926;-77
2021/10/25 13:41:30;;;;;;;;;;;;;;;8.42;64.36;99117.88;5080156;28;20022;-76
2021/10/25 13:43:58;;;;;;;;;;;;;;;8.46;64.82;99114.03;5080469;28;19972;-74
2021/10/25 13:46:24;;;;;;;;;;;;;;;8.52;64.67;99112.72;5063298;28;19919;-76
2021/10/25 13:48:50;;;;;;;;;;;;;;;8.57;64.90;99117.69;5113557;28;19923;-76
2021/10/25 13:51:16;;;;;;;;;;;;;;;8.63;64.64;99114.56;5063112;28;19968;-75
2021/10/25 13:53:42;;;;;;;;;;;;;;;8.65;64.95;99118.84;5113537;28;20325;-75
2021/10/25 13:56:11;;;;;;;;;;;;;;;8.67;64.92;99148.00;5079775;28;20011;-76
2021/10/25 13:58:37;;;;;;;;;;;;;;;8.34;65.93;99172.66;5096542;28;19941;-76
2021/10/25 14:01:03;;;;;;;;;;;;;;;7.72;61.39;99178.91;5079568;28;19919;-76
2021/10/25 14:03:29;;;;;;;;;;;;;;;6.78;63.15;99185.34;5063191;28;20022;-77
2021/10/25 14:05:58;;;;;;;;;;;;;;;6.49;64.63;99178.44;5062660;28;19920;-76
2021/10/25 14:08:25;;;;;;;;;;;;;;;6.49;64.86;99189.06;5079035;28;19981;-76
2021/10/25 14:10:52;;;;;;;;;;;;;;;6.45;65.08;99177.81;5079627;28;19990;-76
2021/10/25 14:13:27;;;;;;;;;;;;;;;6.14;65.58;99186.06;5097523;28;19920;-77
2021/10/25 14:18:54;;;;;;;;;;;;;;;5.68;67.71;99199.53;5035067;28;20043;-78
2021/10/25 14:21:20;;;;;;;;;;;;;;;5.54;68.17;99211.84;5079691;28;19919;-76
2021/10/25 14:23:46;;;;;;;;;;;;;;;5.55;68.11;99216.22;5062459;28;19919;-77
2021/10/25 14:26:12;;;;;;;;;;;;;;;5.58;68.25;99196.63;5079205;28;19930;-77
2021/10/25 14:28:40;;;;;;;;;;;;;;;5.56;67.84;99204.66;5079172;28;19923;-77
2021/10/25 14:31:06;;;;;;;;;;;;;;;5.54;67.99;99206.56;5064340;28;20028;-76
2021/10/25 14:33:33;;;;;;;;;;;;;;;5.55;67.92;99208.25;5071531;28;20010;-76
2021/10/25 14:35:59;;;;;;;;;;;;;;;5.64;67.60;99205.97;5079480;28;19947;-76
2021/10/25 14:43:20;;;;;;;;;;;;;;;5.60;67.49;99211.50;5079091;28;20283;-79
2021/10/25 14:45:55;;;;;;;;;;;;;;;5.64;67.06;99208.63;5097989;28;19926;-76
2021/10/25 14:48:26;;;;;;;;;;;;;;;5.58;67.65;99220.47;5099176;28;20056;-77
2021/10/25 14:53:44;;;;;;;;;;;;;;;5.53;67.52;99204.88;5099194;28;19927;-76
2021/10/25 14:56:11;;;;;;;;;;;;;;;5.53;67.41;99214.63;5080172;28;19920;-77
2021/10/25 14:58:37;;;;;;;;;;;;;;;5.49;66.86;99206.00;5078893;28;19927;-77
2021/10/25 15:01:03;;;;;;;;;;;;;;;5.58;66.85;99202.78;5078948;28;20393;-78